sensor_id;sensor_type;location;lat;lon;timestamp;P1;durP1;ratioP1;P2;durP2;ratioP2
60454;SDS011;54989;53.398;6.564;2022-09-20T00:01:11;2.83;;;2.22;;
60454;SDS011;54989;53.398;6.564;2022-09-20T00:03:41;4.45;;;2.50;;
60454;SDS011;54989;53.398;6.564;2022-09-20T00:06:12;4.25;;;2.38;;
60454;SDS011;54989;53.398;6.564;2022-09-20T00:08:41;4.10;;;2.50;;
60454;SDS011;54989;53.398;6.564;2022-09-20T00:11:10;3.80;;;2.50;;
60454;SDS011;54989;53.398;6.564;2022-09-20T00:13:45;3.90;;;2.30;;
60454;SDS011;54989;53.398;6.564;2022-09-20T00:16:18;3.33;;;2.30;;
60454;SDS011;54989;53.398;6.564;2022-09-20T00:18:51;5.07;;;2.25;;
60454;SDS011;54989;53.398;6.564;2022-09-20T00:21:21;2.30;;;1.92;;
60454;SDS011;54989;53.398;6.564;2022-09-20T00:23:51;4.00;;;2.30;;
60454;SDS011;54989;53.398;6.564;2022-09-20T00:26:19;3.00;;;1.75;;
60454;SDS011;54989;53.398;6.564;2022-09-20T00:28:47;2.95;;;1.85;;
60454;SDS011;54989;53.398;6.564;2022-09-20T00:31:15;2.97;;;1.90;;
60454;SDS011;54989;53.398;6.564;2022-09-20T00:33:42;2.92;;;2.10;;
60454;SDS011;54989;53.398;6.564;2022-09-20T00:36:28;3.85;;;2.05;;
60454;SDS011;54989;53.398;6.564;2022-09-20T00:38:57;3.65;;;2.10;;
60454;SDS011;54989;53.398;6.564;2022-09-20T00:41:26;2.55;;;1.80;;
60454;SDS011;54989;53.398;6.564;2022-09-20T00:43:54;3.33;;;1.70;;
60454;SDS011;54989;53.398;6.564;2022-09-20T00:46:26;2.58;;;1.70;;
60454;SDS011;54989;53.398;6.564;2022-09-20T00:49:25;3.88;;;1.95;;
60454;SDS011;54989;53.398;6.564;2022-09-20T00:51:54;2.25;;;1.70;;
60454;SDS011;54989;53.398;6.564;2022-09-20T00:54:26;3.25;;;1.92;;
60454;SDS011;54989;53.398;6.564;2022-09-20T00:56:56;3.25;;;1.90;;
60454;SDS011;54989;53.398;6.564;2022-09-20T00:59:33;2.55;;;1.55;;
60454;SDS011;54989;53.398;6.564;2022-09-20T01:02:08;3.60;;;1.90;;
60454;SDS011;54989;53.398;6.564;2022-09-20T01:04:38;2.33;;;1.70;;
60454;SDS011;54989;53.398;6.564;2022-09-20T01:07:08;2.50;;;1.80;;
60454;SDS011;54989;53.398;6.564;2022-09-20T01:09:38;2.43;;;1.70;;
60454;SDS011;54989;53.398;6.564;2022-09-20T01:12:07;2.72;;;1.90;;
60454;SDS011;54989;53.398;6.564;2022-09-20T01:14:39;2.22;;;1.70;;
60454;SDS011;54989;53.398;6.564;2022-09-20T01:17:09;3.50;;;1.65;;
60454;SDS011;54989;53.398;6.564;2022-09-20T01:28:24;1.77;;;1.42;;
60454;SDS011;54989;53.398;6.564;2022-09-20T01:33:48;2.75;;;1.50;;
60454;SDS011;54989;53.398;6.564;2022-09-20T01:36:33;1.80;;;1.30;;
60454;SDS011;54989;53.398;6.564;2022-09-20T01:42:08;1.65;;;1.30;;
60454;SDS011;54989;53.398;6.564;2022-09-20T01:47:34;1.45;;;1.30;;
60454;SDS011;54989;53.398;6.564;2022-09-20T01:50:14;2.53;;;1.38;;
60454;SDS011;54989;53.398;6.564;2022-09-20T01:55:53;1.77;;;1.38;;
60454;SDS011;54989;53.398;6.564;2022-09-20T02:01:59;1.67;;;1.27;;
60454;SDS011;54989;53.398;6.564;2022-09-20T02:05:03;1.38;;;1.23;;
60454;SDS011;54989;53.398;6.564;2022-09-20T02:07:55;1.92;;;1.10;;
60454;SDS011;54989;53.398;6.564;2022-09-20T02:13:32;1.83;;;1.30;;
60454;SDS011;54989;53.398;6.564;2022-09-20T02:24:45;1.55;;;0.82;;
60454;SDS011;54989;53.398;6.564;2022-09-20T02:30:44;1.42;;;0.98;;
60454;SDS011;54989;53.398;6.564;2022-09-20T02:39:34;2.20;;;1.15;;
60454;SDS011;54989;53.398;6.564;2022-09-20T02:42:28;1.40;;;1.00;;
60454;SDS011;54989;53.398;6.564;2022-09-20T02:47:54;1.50;;;1.02;;
60454;SDS011;54989;53.398;6.564;2022-09-20T02:58:43;1.10;;;0.80;;
60454;SDS011;54989;53.398;6.564;2022-09-20T03:03:54;1.08;;;0.95;;
60454;SDS011;54989;53.398;6.564;2022-09-20T03:20:36;1.13;;;0.88;;
60454;SDS011;54989;53.398;6.564;2022-09-20T03:26:06;1.45;;;0.93;;
60454;SDS011;54989;53.398;6.564;2022-09-20T03:28:59;0.65;;;0.60;;
60454;SDS011;54989;53.398;6.564;2022-09-20T03:43:03;0.88;;;0.85;;
60454;SDS011;54989;53.398;6.564;2022-09-20T03:53:46;1.48;;;0.65;;
60454;SDS011;54989;53.398;6.564;2022-09-20T04:04:57;0.63;;;0.50;;
60454;SDS011;54989;53.398;6.564;2022-09-20T04:10:21;1.10;;;0.65;;
60454;SDS011;54989;53.398;6.564;2022-09-20T04:18:38;0.70;;;0.70;;
60454;SDS011;54989;53.398;6.564;2022-09-20T04:26:21;0.85;;;0.80;;
60454;SDS011;54989;53.398;6.564;2022-09-20T04:31:54;1.02;;;0.75;;
60454;SDS011;54989;53.398;6.564;2022-09-20T04:34:41;1.17;;;0.73;;
60454;SDS011;54989;53.398;6.564;2022-09-20T04:37:48;1.33;;;0.70;;
60454;SDS011;54989;53.398;6.564;2022-09-20T04:40:35;0.70;;;0.60;;
60454;SDS011;54989;53.398;6.564;2022-09-20T05:09:09;0.65;;;0.65;;
60454;SDS011;54989;53.398;6.564;2022-09-20T05:12:15;1.20;;;0.70;;
60454;SDS011;54989;53.398;6.564;2022-09-20T05:17:57;0.85;;;0.73;;
60454;SDS011;54989;53.398;6.564;2022-09-20T05:31:46;0.50;;;0.50;;
60454;SDS011;54989;53.398;6.564;2022-09-20T05:41:21;1.10;;;0.70;;
60454;SDS011;54989;53.398;6.564;2022-09-20T05:43:15;0.60;;;0.60;;
60454;SDS011;54989;53.398;6.564;2022-09-20T05:51:08;0.70;;;0.70;;
60454;SDS011;54989;53.398;6.564;2022-09-20T05:54:35;0.47;;;0.45;;
60454;SDS011;54989;53.398;6.564;2022-09-20T06:00:08;0.50;;;0.40;;
60454;SDS011;54989;53.398;6.564;2022-09-20T06:13:59;0.60;;;0.40;;
60454;SDS011;54989;53.398;6.564;2022-09-20T06:22:15;1.05;;;0.90;;
60454;SDS011;54989;53.398;6.564;2022-09-20T06:27:23;0.68;;;0.68;;
60454;SDS011;54989;53.398;6.564;2022-09-20T06:29:57;0.50;;;0.50;;
60454;SDS011;54989;53.398;6.564;2022-09-20T06:32:28;0.55;;;0.50;;
60454;SDS011;54989;53.398;6.564;2022-09-20T06:34:57;1.13;;;0.52;;
60454;SDS011;54989;53.398;6.564;2022-09-20T06:37:44;0.98;;;0.82;;
60454;SDS011;54989;53.398;6.564;2022-09-20T06:40:41;1.33;;;0.70;;
60454;SDS011;54989;53.398;6.564;2022-09-20T06:43:36;1.13;;;0.52;;
60454;SDS011;54989;53.398;6.564;2022-09-20T06:46:07;0.50;;;0.50;;
60454;SDS011;54989;53.398;6.564;2022-09-20T06:48:34;2.00;;;0.80;;
60454;SDS011;54989;53.398;6.564;2022-09-20T06:51:06;1.65;;;0.80;;
60454;SDS011;54989;53.398;6.564;2022-09-20T06:53:38;0.32;;;0.30;;
60454;SDS011;54989;53.398;6.564;2022-09-20T06:56:12;0.90;;;0.60;;
60454;SDS011;54989;53.398;6.564;2022-09-20T06:58:43;1.50;;;0.40;;
60454;SDS011;54989;53.398;6.564;2022-09-20T07:01:10;0.80;;;0.80;;
60454;SDS011;54989;53.398;6.564;2022-09-20T07:03:40;0.75;;;0.32;;
60454;SDS011;54989;53.398;6.564;2022-09-20T07:06:08;1.00;;;0.60;;
60454;SDS011;54989;53.398;6.564;2022-09-20T07:08:36;1.70;;;0.57;;
60454;SDS011;54989;53.398;6.564;2022-09-20T07:11:14;1.10;;;0.60;;
60454;SDS011;54989;53.398;6.564;2022-09-20T07:13:43;0.63;;;0.50;;
60454;SDS011;54989;53.398;6.564;2022-09-20T07:16:11;1.20;;;0.50;;
60454;SDS011;54989;53.398;6.564;2022-09-20T07:18:40;0.80;;;0.50;;
60454;SDS011;54989;53.398;6.564;2022-09-20T07:21:11;0.88;;;0.40;;
60454;SDS011;54989;53.398;6.564;2022-09-20T07:23:40;0.73;;;0.70;;
60454;SDS011;54989;53.398;6.564;2022-09-20T07:26:19;0.63;;;0.50;;
60454;SDS011;54989;53.398;6.564;2022-09-20T07:28:49;0.50;;;0.50;;
60454;SDS011;54989;53.398;6.564;2022-09-20T07:31:17;0.90;;;0.50;;
60454;SDS011;54989;53.398;6.564;2022-09-20T07:33:45;0.45;;;0.45;;
60454;SDS011;54989;53.398;6.564;2022-09-20T07:36:13;0.63;;;0.60;;
60454;SDS011;54989;53.398;6.564;2022-09-20T07:38:45;0.30;;;0.30;;
60454;SDS011;54989;53.398;6.564;2022-09-20T07:41:14;0.73;;;0.30;;
60454;SDS011;54989;53.398;6.564;2022-09-20T07:43:45;0.90;;;0.60;;
60454;SDS011;54989;53.398;6.564;2022-09-20T07:46:12;0.75;;;0.50;;
60454;SDS011;54989;53.398;6.564;2022-09-20T07:48:40;0.65;;;0.50;;
60454;SDS011;54989;53.398;6.564;2022-09-20T07:51:09;0.43;;;0.30;;
60454;SDS011;54989;53.398;6.564;2022-09-20T07:53:38;1.33;;;0.50;;
60454;SDS011;54989;53.398;6.564;2022-09-20T07:56:09;1.48;;;0.63;;
60454;SDS011;54989;53.398;6.564;2022-09-20T07:58:38;0.50;;;0.50;;
60454;SDS011;54989;53.398;6.564;2022-09-20T08:01:07;0.75;;;0.47;;
60454;SDS011;54989;53.398;6.564;2022-09-20T08:03:36;0.50;;;0.47;;
60454;SDS011;54989;53.398;6.564;2022-09-20T08:06:06;0.65;;;0.65;;
60454;SDS011;54989;53.398;6.564;2022-09-20T08:08:36;0.50;;;0.50;;
60454;SDS011;54989;53.398;6.564;2022-09-20T08:11:07;0.75;;;0.60;;
60454;SDS011;54989;53.398;6.564;2022-09-20T08:13:44;0.77;;;0.40;;
60454;SDS011;54989;53.398;6.564;2022-09-20T08:16:37;0.73;;;0.60;;
60454;SDS011;54989;53.398;6.564;2022-09-20T08:19:06;0.93;;;0.50;;
60454;SDS011;54989;53.398;6.564;2022-09-20T08:21:34;0.68;;;0.50;;
60454;SDS011;54989;53.398;6.564;2022-09-20T08:24:05;0.90;;;0.40;;
60454;SDS011;54989;53.398;6.564;2022-09-20T08:26:33;0.60;;;0.30;;
60454;SDS011;54989;53.398;6.564;2022-09-20T08:29:02;1.17;;;0.50;;
60454;SDS011;54989;53.398;6.564;2022-09-20T08:31:32;1.63;;;0.93;;
60454;SDS011;54989;53.398;6.564;2022-09-20T08:34:03;2.75;;;1.63;;
60454;SDS011;54989;53.398;6.564;2022-09-20T08:36:33;3.05;;;1.30;;
60454;SDS011;54989;53.398;6.564;2022-09-20T08:39:03;1.90;;;1.25;;
60454;SDS011;54989;53.398;6.564;2022-09-20T08:41:53;1.27;;;1.17;;
60454;SDS011;54989;53.398;6.564;2022-09-20T08:47:26;1.60;;;1.30;;
60454;SDS011;54989;53.398;6.564;2022-09-20T08:49:59;1.98;;;1.88;;
60454;SDS011;54989;53.398;6.564;2022-09-20T08:52:37;1.73;;;1.63;;
60454;SDS011;54989;53.398;6.564;2022-09-20T08:55:16;2.00;;;1.90;;
60454;SDS011;54989;53.398;6.564;2022-09-20T08:57:56;1.80;;;1.70;;
60454;SDS011;54989;53.398;6.564;2022-09-20T09:00:26;3.25;;;1.77;;
60454;SDS011;54989;53.398;6.564;2022-09-20T09:02:59;1.88;;;1.77;;
60454;SDS011;54989;53.398;6.564;2022-09-20T09:05:35;3.05;;;1.80;;
60454;SDS011;54989;53.398;6.564;2022-09-20T09:08:10;4.05;;;1.77;;
60454;SDS011;54989;53.398;6.564;2022-09-20T09:10:46;2.10;;;1.90;;
60454;SDS011;54989;53.398;6.564;2022-09-20T09:13:22;3.97;;;1.70;;
60454;SDS011;54989;53.398;6.564;2022-09-20T09:16:15;2.97;;;1.80;;
60454;SDS011;54989;53.398;6.564;2022-09-20T09:18:54;6.47;;;1.85;;
60454;SDS011;54989;53.398;6.564;2022-09-20T09:21:24;2.85;;;1.58;;
60454;SDS011;54989;53.398;6.564;2022-09-20T09:24:00;6.63;;;1.95;;
60454;SDS011;54989;53.398;6.564;2022-09-20T09:31:47;4.32;;;1.77;;
60454;SDS011;54989;53.398;6.564;2022-09-20T09:34:32;6.25;;;1.80;;
60454;SDS011;54989;53.398;6.564;2022-09-20T09:37:04;4.95;;;1.90;;
60454;SDS011;54989;53.398;6.564;2022-09-20T09:39:32;4.85;;;1.77;;
60454;SDS011;54989;53.398;6.564;2022-09-20T09:42:20;2.70;;;1.40;;
60454;SDS011;54989;53.398;6.564;2022-09-20T09:44:52;4.53;;;1.60;;
60454;SDS011;54989;53.398;6.564;2022-09-20T09:47:37;3.08;;;1.70;;
60454;SDS011;54989;53.398;6.564;2022-09-20T09:50:05;3.20;;;1.65;;
60454;SDS011;54989;53.398;6.564;2022-09-20T09:52:35;7.55;;;2.20;;
60454;SDS011;54989;53.398;6.564;2022-09-20T09:55:03;4.25;;;1.90;;
60454;SDS011;54989;53.398;6.564;2022-09-20T10:00:12;7.43;;;2.00;;
60454;SDS011;54989;53.398;6.564;2022-09-20T10:03:09;6.90;;;2.00;;
60454;SDS011;54989;53.398;6.564;2022-09-20T10:06:22;7.50;;;2.23;;
60454;SDS011;54989;53.398;6.564;2022-09-20T10:11:52;4.78;;;1.90;;
60454;SDS011;54989;53.398;6.564;2022-09-20T10:14:55;4.60;;;1.73;;
60454;SDS011;54989;53.398;6.564;2022-09-20T10:24:20;4.68;;;1.65;;
60454;SDS011;54989;53.398;6.564;2022-09-20T10:30:01;3.20;;;1.60;;
60454;SDS011;54989;53.398;6.564;2022-09-20T10:35:56;4.70;;;1.80;;
60454;SDS011;54989;53.398;6.564;2022-09-20T10:45:40;3.88;;;1.83;;
60454;SDS011;54989;53.398;6.564;2022-09-20T10:48:21;3.78;;;1.75;;
60454;SDS011;54989;53.398;6.564;2022-09-20T10:50:57;3.80;;;1.85;;
60454;SDS011;54989;53.398;6.564;2022-09-20T10:56:32;3.45;;;1.60;;
60454;SDS011;54989;53.398;6.564;2022-09-20T11:08:05;3.47;;;1.60;;
60454;SDS011;54989;53.398;6.564;2022-09-20T11:10:45;2.50;;;1.47;;
60454;SDS011;54989;53.398;6.564;2022-09-20T11:13:26;1.92;;;1.30;;
60454;SDS011;54989;53.398;6.564;2022-09-20T11:16:05;2.88;;;1.30;;
60454;SDS011;54989;53.398;6.564;2022-09-20T11:18:41;2.38;;;1.60;;
60454;SDS011;54989;53.398;6.564;2022-09-20T11:21:37;3.63;;;1.80;;
60454;SDS011;54989;53.398;6.564;2022-09-20T11:26:41;2.63;;;1.55;;
60454;SDS011;54989;53.398;6.564;2022-09-20T11:31:46;2.67;;;1.80;;
60454;SDS011;54989;53.398;6.564;2022-09-20T11:34:24;1.85;;;1.30;;
60454;SDS011;54989;53.398;6.564;2022-09-20T11:36:58;2.65;;;1.23;;
60454;SDS011;54989;53.398;6.564;2022-09-20T11:42:03;2.63;;;1.50;;
60454;SDS011;54989;53.398;6.564;2022-09-20T11:44:32;1.60;;;1.20;;
60454;SDS011;54989;53.398;6.564;2022-09-20T11:47:05;1.95;;;1.38;;
60454;SDS011;54989;53.398;6.564;2022-09-20T11:55:39;2.03;;;1.30;;
60454;SDS011;54989;53.398;6.564;2022-09-20T11:58:13;2.35;;;1.45;;
60454;SDS011;54989;53.398;6.564;2022-09-20T12:00:43;2.10;;;1.23;;
60454;SDS011;54989;53.398;6.564;2022-09-20T12:03:24;2.83;;;1.30;;
60454;SDS011;54989;53.398;6.564;2022-09-20T12:06:02;1.33;;;1.15;;
60454;SDS011;54989;53.398;6.564;2022-09-20T12:08:36;3.80;;;1.50;;
60454;SDS011;54989;53.398;6.564;2022-09-20T12:11:10;2.97;;;1.52;;
60454;SDS011;54989;53.398;6.564;2022-09-20T12:13:40;8.23;;;4.32;;
60454;SDS011;54989;53.398;6.564;2022-09-20T12:16:35;19.08;;;10.13;;
60454;SDS011;54989;53.398;6.564;2022-09-20T12:19:11;24.38;;;14.88;;
60454;SDS011;54989;53.398;6.564;2022-09-20T12:22:15;33.90;;;20.60;;
60454;SDS011;54989;53.398;6.564;2022-09-20T12:24:38;38.33;;;23.00;;
60454;SDS011;54989;53.398;6.564;2022-09-20T12:27:22;36.80;;;22.65;;
60454;SDS011;54989;53.398;6.564;2022-09-20T12:30:41;39.13;;;23.80;;
60454;SDS011;54989;53.398;6.564;2022-09-20T12:33:01;44.90;;;27.10;;
60454;SDS011;54989;53.398;6.564;2022-09-20T12:41:08;52.67;;;28.63;;
60454;SDS011;54989;53.398;6.564;2022-09-20T12:46:22;41.97;;;24.35;;
60454;SDS011;54989;53.398;6.564;2022-09-20T12:55:10;48.22;;;26.80;;
60454;SDS011;54989;53.398;6.564;2022-09-20T12:57:53;45.85;;;24.85;;
60454;SDS011;54989;53.398;6.564;2022-09-20T13:00:35;36.45;;;21.50;;
60454;SDS011;54989;53.398;6.564;2022-09-20T13:06:20;42.85;;;23.50;;
60454;SDS011;54989;53.398;6.564;2022-09-20T13:11:10;87.85;;;44.92;;
60454;SDS011;54989;53.398;6.564;2022-09-20T13:19:22;122.68;;;61.22;;
60454;SDS011;54989;53.398;6.564;2022-09-20T13:24:26;110.28;;;58.08;;
60454;SDS011;54989;53.398;6.564;2022-09-20T13:27:07;109.10;;;57.30;;
60454;SDS011;54989;53.398;6.564;2022-09-20T13:29:45;97.45;;;52.42;;
60454;SDS011;54989;53.398;6.564;2022-09-20T13:37:50;84.20;;;45.72;;
60454;SDS011;54989;53.398;6.564;2022-09-20T13:40:24;80.55;;;45.10;;
60454;SDS011;54989;53.398;6.564;2022-09-20T13:43:03;81.80;;;44.20;;
60454;SDS011;54989;53.398;6.564;2022-09-20T13:46:11;74.43;;;41.85;;
60454;SDS011;54989;53.398;6.564;2022-09-20T13:48:38;76.43;;;41.85;;
60454;SDS011;54989;53.398;6.564;2022-09-20T13:51:19;73.90;;;41.03;;
60454;SDS011;54989;53.398;6.564;2022-09-20T13:53:51;65.10;;;37.92;;
60454;SDS011;54989;53.398;6.564;2022-09-20T13:56:23;62.03;;;36.25;;
60454;SDS011;54989;53.398;6.564;2022-09-20T13:58:54;60.83;;;35.25;;
60454;SDS011;54989;53.398;6.564;2022-09-20T14:01:28;57.03;;;33.55;;
60454;SDS011;54989;53.398;6.564;2022-09-20T14:04:02;53.78;;;32.03;;
60454;SDS011;54989;53.398;6.564;2022-09-20T14:06:34;54.53;;;33.70;;
60454;SDS011;54989;53.398;6.564;2022-09-20T14:09:03;71.28;;;40.15;;
60454;SDS011;54989;53.398;6.564;2022-09-20T14:11:37;68.10;;;39.88;;
60454;SDS011;54989;53.398;6.564;2022-09-20T14:14:05;75.85;;;45.25;;
60454;SDS011;54989;53.398;6.564;2022-09-20T14:16:35;73.70;;;43.03;;
60454;SDS011;54989;53.398;6.564;2022-09-20T14:19:05;77.30;;;45.35;;
60454;SDS011;54989;53.398;6.564;2022-09-20T14:21:34;78.28;;;46.67;;
60454;SDS011;54989;53.398;6.564;2022-09-20T14:24:06;76.65;;;45.10;;
60454;SDS011;54989;53.398;6.564;2022-09-20T14:26:35;80.30;;;44.28;;
60454;SDS011;54989;53.398;6.564;2022-09-20T14:32:01;81.43;;;47.58;;
60454;SDS011;54989;53.398;6.564;2022-09-20T14:34:38;77.43;;;46.85;;
60454;SDS011;54989;53.398;6.564;2022-09-20T14:39:52;84.70;;;49.95;;
60454;SDS011;54989;53.398;6.564;2022-09-20T14:42:42;82.45;;;48.15;;
60454;SDS011;54989;53.398;6.564;2022-09-20T14:45:20;81.68;;;47.42;;
60454;SDS011;54989;53.398;6.564;2022-09-20T14:53:42;77.80;;;48.80;;
60454;SDS011;54989;53.398;6.564;2022-09-20T14:56:24;78.95;;;48.13;;
60454;SDS011;54989;53.398;6.564;2022-09-20T15:01:43;88.82;;;49.65;;
60454;SDS011;54989;53.398;6.564;2022-09-20T15:04:32;83.25;;;48.78;;
60454;SDS011;54989;53.398;6.564;2022-09-20T15:07:04;75.93;;;45.65;;
60454;SDS011;54989;53.398;6.564;2022-09-20T15:09:34;68.55;;;42.75;;
60454;SDS011;54989;53.398;6.564;2022-09-20T15:12:02;77.47;;;45.15;;
60454;SDS011;54989;53.398;6.564;2022-09-20T15:14:41;74.60;;;44.00;;
60454;SDS011;54989;53.398;6.564;2022-09-20T15:17:13;71.70;;;43.55;;
60454;SDS011;54989;53.398;6.564;2022-09-20T15:19:46;73.78;;;43.45;;
60454;SDS011;54989;53.398;6.564;2022-09-20T15:22:14;78.40;;;46.63;;
60454;SDS011;54989;53.398;6.564;2022-09-20T15:24:42;77.57;;;45.78;;
60454;SDS011;54989;53.398;6.564;2022-09-20T15:27:12;79.55;;;48.90;;
60454;SDS011;54989;53.398;6.564;2022-09-20T15:29:41;73.78;;;44.33;;
60454;SDS011;54989;53.398;6.564;2022-09-20T15:32:11;72.55;;;41.95;;
60454;SDS011;54989;53.398;6.564;2022-09-20T15:34:38;70.05;;;41.67;;
60454;SDS011;54989;53.398;6.564;2022-09-20T15:37:06;64.85;;;40.20;;
60454;SDS011;54989;53.398;6.564;2022-09-20T15:39:33;61.10;;;37.65;;
60454;SDS011;54989;53.398;6.564;2022-09-20T15:42:01;62.10;;;38.35;;
60454;SDS011;54989;53.398;6.564;2022-09-20T15:44:28;53.58;;;34.08;;
60454;SDS011;54989;53.398;6.564;2022-09-20T15:46:58;59.83;;;37.28;;
60454;SDS011;54989;53.398;6.564;2022-09-20T15:49:25;55.50;;;33.42;;
60454;SDS011;54989;53.398;6.564;2022-09-20T15:51:53;49.30;;;32.15;;
60454;SDS011;54989;53.398;6.564;2022-09-20T15:54:20;45.97;;;30.33;;
60454;SDS011;54989;53.398;6.564;2022-09-20T15:56:48;44.58;;;28.48;;
60454;SDS011;54989;53.398;6.564;2022-09-20T15:59:18;47.97;;;28.98;;
60454;SDS011;54989;53.398;6.564;2022-09-20T16:01:48;45.33;;;25.70;;
60454;SDS011;54989;53.398;6.564;2022-09-20T16:04:18;40.95;;;26.35;;
60454;SDS011;54989;53.398;6.564;2022-09-20T16:06:46;41.55;;;26.10;;
60454;SDS011;54989;53.398;6.564;2022-09-20T16:09:16;40.95;;;24.73;;
60454;SDS011;54989;53.398;6.564;2022-09-20T16:11:44;40.50;;;22.38;;
60454;SDS011;54989;53.398;6.564;2022-09-20T16:14:12;34.35;;;21.33;;
60454;SDS011;54989;53.398;6.564;2022-09-20T16:16:40;35.92;;;20.92;;
60454;SDS011;54989;53.398;6.564;2022-09-20T16:19:10;32.60;;;20.13;;
60454;SDS011;54989;53.398;6.564;2022-09-20T16:21:44;30.50;;;19.73;;
60454;SDS011;54989;53.398;6.564;2022-09-20T16:24:25;32.13;;;19.88;;
60454;SDS011;54989;53.398;6.564;2022-09-20T16:26:58;38.30;;;21.98;;
60454;SDS011;54989;53.398;6.564;2022-09-20T16:29:27;41.08;;;24.67;;
60454;SDS011;54989;53.398;6.564;2022-09-20T16:31:55;44.45;;;26.50;;
60454;SDS011;54989;53.398;6.564;2022-09-20T16:34:25;54.08;;;30.42;;
60454;SDS011;54989;53.398;6.564;2022-09-20T16:39:33;60.80;;;37.25;;
60454;SDS011;54989;53.398;6.564;2022-09-20T16:42:01;68.47;;;39.42;;
60454;SDS011;54989;53.398;6.564;2022-09-20T16:44:31;65.38;;;38.13;;
60454;SDS011;54989;53.398;6.564;2022-09-20T16:47:00;71.55;;;39.78;;
60454;SDS011;54989;53.398;6.564;2022-09-20T16:49:28;70.05;;;39.15;;
60454;SDS011;54989;53.398;6.564;2022-09-20T16:51:56;70.53;;;40.95;;
60454;SDS011;54989;53.398;6.564;2022-09-20T16:54:23;76.47;;;44.15;;
60454;SDS011;54989;53.398;6.564;2022-09-20T16:56:57;83.15;;;47.30;;
60454;SDS011;54989;53.398;6.564;2022-09-20T16:59:24;81.93;;;47.28;;
60454;SDS011;54989;53.398;6.564;2022-09-20T17:01:52;87.20;;;50.53;;
60454;SDS011;54989;53.398;6.564;2022-09-20T17:04:19;95.95;;;52.20;;
60454;SDS011;54989;53.398;6.564;2022-09-20T17:06:47;91.20;;;51.53;;
60454;SDS011;54989;53.398;6.564;2022-09-20T17:09:15;83.88;;;49.28;;
60454;SDS011;54989;53.398;6.564;2022-09-20T17:11:44;81.50;;;48.45;;
60454;SDS011;54989;53.398;6.564;2022-09-20T17:14:13;89.03;;;48.25;;
60454;SDS011;54989;53.398;6.564;2022-09-20T17:16:42;82.93;;;47.97;;
60454;SDS011;54989;53.398;6.564;2022-09-20T17:19:14;87.60;;;48.65;;
60454;SDS011;54989;53.398;6.564;2022-09-20T17:24:15;82.75;;;49.33;;
60454;SDS011;54989;53.398;6.564;2022-09-20T17:26:46;86.30;;;49.65;;
60454;SDS011;54989;53.398;6.564;2022-09-20T17:29:16;93.47;;;50.65;;
60454;SDS011;54989;53.398;6.564;2022-09-20T17:31:45;86.47;;;49.67;;
60454;SDS011;54989;53.398;6.564;2022-09-20T17:34:20;92.88;;;52.03;;
60454;SDS011;54989;53.398;6.564;2022-09-20T17:36:48;89.13;;;50.55;;
60454;SDS011;54989;53.398;6.564;2022-09-20T17:39:16;88.75;;;48.33;;
60454;SDS011;54989;53.398;6.564;2022-09-20T17:41:45;86.20;;;50.25;;
60454;SDS011;54989;53.398;6.564;2022-09-20T17:44:14;78.85;;;46.85;;
60454;SDS011;54989;53.398;6.564;2022-09-20T17:46:42;78.07;;;45.88;;
60454;SDS011;54989;53.398;6.564;2022-09-20T17:49:20;80.05;;;46.65;;
60454;SDS011;54989;53.398;6.564;2022-09-20T17:51:49;72.07;;;43.45;;
60454;SDS011;54989;53.398;6.564;2022-09-20T17:54:22;71.28;;;44.53;;
60454;SDS011;54989;53.398;6.564;2022-09-20T17:56:51;75.40;;;43.13;;
60454;SDS011;54989;53.398;6.564;2022-09-20T17:59:21;70.38;;;41.60;;
60454;SDS011;54989;53.398;6.564;2022-09-20T18:01:50;72.75;;;41.83;;
60454;SDS011;54989;53.398;6.564;2022-09-20T18:04:18;73.95;;;41.92;;
60454;SDS011;54989;53.398;6.564;2022-09-20T18:06:51;69.68;;;39.88;;
60454;SDS011;54989;53.398;6.564;2022-09-20T18:09:20;67.97;;;39.05;;
60454;SDS011;54989;53.398;6.564;2022-09-20T18:11:52;65.93;;;38.90;;
60454;SDS011;54989;53.398;6.564;2022-09-20T18:14:23;63.63;;;37.63;;
60454;SDS011;54989;53.398;6.564;2022-09-20T18:16:57;64.63;;;37.83;;
60454;SDS011;54989;53.398;6.564;2022-09-20T18:19:28;62.35;;;35.20;;
60454;SDS011;54989;53.398;6.564;2022-09-20T18:22:00;57.97;;;35.05;;
60454;SDS011;54989;53.398;6.564;2022-09-20T18:24:28;57.42;;;34.28;;
60454;SDS011;54989;53.398;6.564;2022-09-20T18:26:56;53.60;;;33.90;;
60454;SDS011;54989;53.398;6.564;2022-09-20T18:29:26;52.47;;;31.05;;
60454;SDS011;54989;53.398;6.564;2022-09-20T18:31:55;57.65;;;32.10;;
60454;SDS011;54989;53.398;6.564;2022-09-20T18:34:26;51.00;;;29.65;;
60454;SDS011;54989;53.398;6.564;2022-09-20T18:36:59;49.50;;;30.52;;
60454;SDS011;54989;53.398;6.564;2022-09-20T18:39:30;50.35;;;30.27;;
60454;SDS011;54989;53.398;6.564;2022-09-20T18:42:04;48.22;;;28.77;;
60454;SDS011;54989;53.398;6.564;2022-09-20T18:44:35;49.33;;;27.95;;
60454;SDS011;54989;53.398;6.564;2022-09-20T18:47:07;43.35;;;25.13;;
60454;SDS011;54989;53.398;6.564;2022-09-20T18:49:34;42.50;;;25.38;;
60454;SDS011;54989;53.398;6.564;2022-09-20T18:52:02;36.70;;;23.58;;
60454;SDS011;54989;53.398;6.564;2022-09-20T18:54:38;41.72;;;25.90;;
60454;SDS011;54989;53.398;6.564;2022-09-20T18:57:07;32.85;;;19.92;;
60454;SDS011;54989;53.398;6.564;2022-09-20T18:59:39;31.95;;;18.20;;
60454;SDS011;54989;53.398;6.564;2022-09-20T19:02:23;29.58;;;17.48;;
60454;SDS011;54989;53.398;6.564;2022-09-20T19:07:35;27.02;;;16.27;;
60454;SDS011;54989;53.398;6.564;2022-09-20T19:27:27;23.13;;;13.55;;
60454;SDS011;54989;53.398;6.564;2022-09-20T19:29:55;26.38;;;15.13;;
60454;SDS011;54989;53.398;6.564;2022-09-20T19:32:22;22.45;;;13.40;;
60454;SDS011;54989;53.398;6.564;2022-09-20T19:34:53;22.10;;;12.88;;
60454;SDS011;54989;53.398;6.564;2022-09-20T19:37:29;21.83;;;12.43;;
60454;SDS011;54989;53.398;6.564;2022-09-20T19:40:25;18.95;;;12.43;;
60454;SDS011;54989;53.398;6.564;2022-09-20T19:48:47;17.17;;;11.23;;
60454;SDS011;54989;53.398;6.564;2022-09-20T19:51:36;17.15;;;11.40;;
60454;SDS011;54989;53.398;6.564;2022-09-20T19:54:06;16.30;;;10.35;;
60454;SDS011;54989;53.398;6.564;2022-09-20T19:56:47;16.95;;;10.30;;
60454;SDS011;54989;53.398;6.564;2022-09-20T19:59:23;17.58;;;11.13;;
60454;SDS011;54989;53.398;6.564;2022-09-20T20:01:52;17.13;;;11.00;;
60454;SDS011;54989;53.398;6.564;2022-09-20T20:04:21;15.82;;;10.27;;
60454;SDS011;54989;53.398;6.564;2022-09-20T20:07:11;15.05;;;9.93;;
60454;SDS011;54989;53.398;6.564;2022-09-20T20:16:01;13.73;;;8.32;;
60454;SDS011;54989;53.398;6.564;2022-09-20T20:21:07;12.30;;;7.78;;
60454;SDS011;54989;53.398;6.564;2022-09-20T20:26:51;10.43;;;6.93;;
60454;SDS011;54989;53.398;6.564;2022-09-20T20:29:19;11.18;;;6.78;;
60454;SDS011;54989;53.398;6.564;2022-09-20T20:31:47;12.13;;;6.90;;
60454;SDS011;54989;53.398;6.564;2022-09-20T20:34:14;12.70;;;7.28;;
60454;SDS011;54989;53.398;6.564;2022-09-20T20:36:43;13.38;;;6.88;;
60454;SDS011;54989;53.398;6.564;2022-09-20T20:39:10;12.73;;;6.95;;
60454;SDS011;54989;53.398;6.564;2022-09-20T20:41:39;10.85;;;6.32;;
60454;SDS011;54989;53.398;6.564;2022-09-20T20:44:07;9.02;;;5.90;;
60454;SDS011;54989;53.398;6.564;2022-09-20T20:46:36;10.05;;;5.60;;
60454;SDS011;54989;53.398;6.564;2022-09-20T20:49:03;10.82;;;5.75;;
60454;SDS011;54989;53.398;6.564;2022-09-20T20:51:31;7.70;;;5.28;;
60454;SDS011;54989;53.398;6.564;2022-09-20T20:53:58;8.07;;;5.15;;
60454;SDS011;54989;53.398;6.564;2022-09-20T20:56:27;9.60;;;5.63;;
60454;SDS011;54989;53.398;6.564;2022-09-20T20:58:56;10.75;;;5.40;;
60454;SDS011;54989;53.398;6.564;2022-09-20T21:03:54;10.13;;;5.20;;